Aeroporto :
LOGIN :

Iscrizione | Disclaimer

   EN    FR    IT 

 










Sommario :    VFR   VFR Marginale   IFR   IFR Intensivo   IFR Molto Intensivo
Visibilità : 
Base nubi : 
>= 8 km
>= 3000ft
5 / 8 km
1000 / 3000 ft
1500m / 5 km
500 / 1000 ft
800 / 1500m
200 / 500 ft
< 800m
< 200 ft
Simboli :   Temporali  Nebbia  Neve Forte  Precipitazioni Forti  Vento > 20 kt
SIGMETs :   Varie  Temporali  Ghiacco  Turbolenza  Onda orograficha  Ceneri Vulcaniche






- Altitudine del aeroporto : -13 ft
- Codice IATA : LEY


EHLE - Lelystad

ULTIMO METAR :
  • 231855Z AUTO 21011KT 9999 SHRA FEW009 BKN015CB BKN023 BKN026 05/04 Q0992 NOSIG

METARs OBSOLETI :
  • 231825Z AUTO 22011KT 9999 -SHRA SCT015CB SCT016 BKN025 06/04 Q0992 RERA NOSIG
  • 231755Z AUTO 16011KT 9999 -UP FEW015CB SCT030 BKN049 07/05 Q0991 NOSIG
  • 231725Z AUTO 17009KT 140V200 9999 SCT027 BKN031 07/04 Q0991 NOSIG
  • 231655Z AUTO 20008KT 180V240 9999 BKN041 OVC046 08/04 Q0991 NOSIG
  • 231625Z AUTO 21009KT 170V240 9999 FEW028 BKN047 08/04 Q0990 NOSIG
  • 231555Z AUTO 21012KT 180V240 9999 FEW027 SCT039 08/04 Q0990 NOSIG
  • 231525Z AUTO 20013KT 170V250 9999 FEW028 BKN031 OVC036 08/04 Q0990 NOSIG
  • 231455Z AUTO 21017KT 170V240 9999 FEW026 SCT030 BKN035 08/04 Q0990 NOSIG
  • 231425Z AUTO 21016KT 180V240 9999 FEW025 SCT029 BKN032 08/04 Q0989 NOSIG

TAF TAF EHLE
Valido dal 23 a 18 ore il 25 a 00 ore UTC


231709Z 2318/2424 19010KT 9999 SCT020 BKN025
PROB30
TEMPO 2318/2321 7000 SHRA SCT018CB
PROB30 2408/2411 SCT012 BKN015
PROB30
TEMPO 2410/2413 21013G23KT 6000 SHRA SCT020CB
PROB40
TEMPO 2421/2424 5000 SHRA BKN010 SCT015CB



MetMap, La meteo Aeronautica in un colpo d'occhio ! - Copyright ORBIFLY Dicembre 2007 - Disclaimer

ORBIFLY MET'MAP TEAM :

Programmazione e sviluppo : Alexandra Zaïnal
Concezione : Baudouin d'Aumeries
Supporto tecnico e logistico : Manuel Goepfert
Aiuto : Marc-Olivier Méhu
Aiuto per la traduzione : Arnaldo La Scala




FONTI E CREDITI :

   NOAA